Time;durP1;ratioP1;P1;durP2;ratioP2;P2;SDS_P1;SDS_P2;PMS_P1;PMS_P2;Temp;Humidity;BMP_temperature;BMP_pressure;BME280_temperature;BME280_humidity;BME280_pressure;Samples;Min_cycle;Max_cycle;Signal;HPM_P1;HPM_P2
2022/01/05 00:00:18;;;;;;;20.55;2.80;;;7.00;92.30;;;;;;5110260;27;20404;-73
2022/01/05 00:02:44;;;;;;;18.63;2.90;;;7.00;92.70;;;;;;5104288;28;20422;-75
2022/01/05 00:05:09;;;;;;;15.77;3.13;;;7.00;92.90;;;;;;5112001;27;20423;-71
2022/01/05 00:07:35;;;;;;;19.17;2.85;;;7.00;92.90;;;;;;5109898;27;20391;-72
2022/01/05 00:10:01;;;;;;;16.90;3.43;;;7.10;93.10;;;;;;5113018;27;20407;-73
2022/01/05 00:12:27;;;;;;;18.20;2.87;;;7.10;92.90;;;;;;5110410;27;20412;-74
2022/01/05 00:14:52;;;;;;;18.02;3.15;;;7.10;92.80;;;;;;5112753;27;20429;-72
2022/01/05 00:17:18;;;;;;;19.80;3.17;;;7.10;92.30;;;;;;5094536;28;20406;-73
2022/01/05 00:19:44;;;;;;;14.13;3.00;;;7.10;91.80;;;;;;5108178;28;20474;-72
2022/01/05 00:22:10;;;;;;;20.07;3.10;;;7.00;91.50;;;;;;5114643;27;20466;-74
2022/01/05 00:24:36;;;;;;;16.00;2.60;;;7.00;91.60;;;;;;5087526;28;20411;-73
2022/01/05 00:27:03;;;;;;;17.53;2.50;;;7.00;91.50;;;;;;5093472;28;20408;-74
2022/01/05 00:29:29;;;;;;;12.38;2.42;;;6.90;91.60;;;;;;5111906;28;20414;-74
2022/01/05 00:31:55;;;;;;;19.15;2.92;;;6.90;91.70;;;;;;5112971;28;20410;-75
2022/01/05 00:34:21;;;;;;;17.15;3.33;;;6.90;92.00;;;;;;5124676;27;20410;-74
2022/01/05 00:36:46;;;;;;;19.00;3.07;;;6.90;92.20;;;;;;5106805;28;20407;-73
2022/01/05 00:39:12;;;;;;;14.68;3.03;;;6.90;92.20;;;;;;5111253;28;20412;-71
2022/01/05 00:41:38;;;;;;;17.00;2.80;;;6.90;91.70;;;;;;5110566;28;20432;-73
2022/01/05 00:44:03;;;;;;;13.48;2.90;;;6.90;91.30;;;;;;5111946;28;20408;-74
2022/01/05 00:46:29;;;;;;;15.73;3.00;;;6.80;91.10;;;;;;5092302;28;20408;-74
2022/01/05 00:48:55;;;;;;;15.35;2.60;;;6.80;90.80;;;;;;5107322;28;20504;-73
2022/01/05 00:51:20;;;;;;;16.07;3.00;;;6.80;90.90;;;;;;5111528;28;20412;-74
2022/01/05 00:53:46;;;;;;;18.30;2.80;;;6.80;90.80;;;;;;5115955;27;20722;-73
2022/01/05 00:56:12;;;;;;;14.83;2.87;;;6.80;90.70;;;;;;5113627;27;20423;-73
2022/01/05 00:58:37;;;;;;;20.17;2.95;;;6.80;91.00;;;;;;5114215;28;20420;-73
2022/01/05 01:01:03;;;;;;;17.43;3.23;;;6.80;91.60;;;;;;5108381;28;20913;-72
2022/01/05 01:03:28;;;;;;;23.05;3.00;;;6.80;91.60;;;;;;5093959;28;20402;-72
2022/01/05 01:06:00;;;;;;;24.83;3.60;;;6.90;92.00;;;;;;5100126;27;20972;-72
2022/01/05 01:08:27;;;;;;;22.10;3.75;;;6.90;92.60;;;;;;5120243;28;20413;-73
2022/01/05 01:10:53;;;;;;;22.95;3.47;;;6.90;92.90;;;;;;5115870;28;20420;-73
2022/01/05 01:13:20;;;;;;;20.73;3.87;;;6.90;93.20;;;;;;5092626;28;20416;-70
2022/01/05 01:15:47;;;;;;;20.88;4.00;;;6.90;93.50;;;;;;5105965;28;20511;-72
2022/01/05 01:18:13;;;;;;;19.45;3.75;;;6.90;93.70;;;;;;5107925;28;20966;-72
2022/01/05 01:20:39;;;;;;;18.40;3.78;;;6.90;94.00;;;;;;5118606;27;20437;-72
2022/01/05 01:23:05;;;;;;;21.20;4.03;;;6.90;94.10;;;;;;5113899;27;20483;-74
2022/01/05 01:25:31;;;;;;;24.73;3.90;;;6.90;94.20;;;;;;5104034;27;20400;-73
2022/01/05 01:27:56;;;;;;;19.05;4.05;;;6.90;93.90;;;;;;5116625;27;20411;-73
2022/01/05 01:30:22;;;;;;;23.88;3.97;;;6.90;94.10;;;;;;5121584;27;20411;-71
2022/01/05 01:32:48;;;;;;;26.60;4.47;;;6.90;94.10;;;;;;5111685;27;20408;-73
2022/01/05 01:35:13;;;;;;;26.23;4.25;;;6.90;94.30;;;;;;5116297;27;20415;-74
2022/01/05 01:37:39;;;;;;;23.00;4.03;;;7.00;94.50;;;;;;5123248;27;20411;-73
2022/01/05 01:40:06;;;;;;;23.85;4.13;;;7.00;94.70;;;;;;5107917;27;20420;-72
2022/01/05 01:42:32;;;;;;;24.38;4.28;;;7.00;94.90;;;;;;5111878;27;20542;-73
2022/01/05 01:44:58;;;;;;;23.53;4.30;;;7.00;95.00;;;;;;5111940;27;20968;-74
2022/01/05 01:47:24;;;;;;;26.67;3.72;;;7.00;94.70;;;;;;5118252;27;20413;-73
2022/01/05 01:49:49;;;;;;;24.00;4.23;;;7.10;94.20;;;;;;5113263;27;20402;-73
2022/01/05 01:52:15;;;;;;;26.13;4.00;;;7.10;93.90;;;;;;5117619;27;20977;-71
2022/01/05 01:54:41;;;;;;;19.50;3.60;;;7.10;94.00;;;;;;5113433;27;20890;-73
2022/01/05 01:57:07;;;;;;;18.43;3.50;;;7.10;93.70;;;;;;5108772;28;20931;-73
2022/01/05 01:59:33;;;;;;;20.27;3.97;;;7.10;93.50;;;;;;5108835;27;20893;-71
2022/01/05 02:01:59;;;;;;;23.13;3.57;;;7.10;93.70;;;;;;5092085;27;20415;-72
2022/01/05 02:04:25;;;;;;;17.77;3.00;;;7.10;93.40;;;;;;5119306;27;20404;-73
2022/01/05 02:06:51;;;;;;;17.02;3.00;;;7.10;92.70;;;;;;5106925;27;20943;-73
2022/01/05 02:09:18;;;;;;;20.67;3.28;;;7.10;92.00;;;;;;5114601;27;20408;-75
2022/01/05 02:11:44;;;;;;;17.45;3.20;;;7.20;92.30;;;;;;5114638;27;20407;-74
2022/01/05 02:14:10;;;;;;;24.25;3.60;;;7.20;92.90;;;;;;5115518;27;20923;-72
2022/01/05 02:16:42;;;;;;;24.98;3.85;;;7.20;93.30;;;;;;5108901;27;20419;-72
2022/01/05 02:19:08;;;;;;;21.93;3.73;;;7.20;93.60;;;;;;5113160;27;20888;-74
2022/01/05 02:21:37;;;;;;;17.10;3.17;;;7.20;93.40;;;;;;5108292;27;20400;-73
2022/01/05 02:24:04;;;;;;;19.98;3.20;;;7.20;92.40;;;;;;5111744;27;20769;-74
2022/01/05 02:26:30;;;;;;;24.15;4.00;;;7.20;92.10;;;;;;5110738;27;20420;-74
2022/01/05 02:28:56;;;;;;;21.20;3.47;;;7.20;92.80;;;;;;5108299;27;20887;-73
2022/01/05 02:31:22;;;;;;;21.53;3.60;;;7.20;93.10;;;;;;5111225;27;20408;-74
2022/01/05 02:33:48;;;;;;;20.35;3.58;;;7.10;93.20;;;;;;5109768;27;20426;-72
2022/01/05 02:36:18;;;;;;;23.05;3.78;;;7.10;93.20;;;;;;5111422;27;20904;-73
2022/01/05 02:38:44;;;;;;;19.37;3.50;;;7.10;93.20;;;;;;5106271;27;20453;-72
2022/01/05 02:41:11;;;;;;;19.50;3.73;;;7.10;93.10;;;;;;5090408;28;20423;-73
2022/01/05 02:43:38;;;;;;;27.75;3.72;;;7.10;93.40;;;;;;5108876;28;20404;-74
2022/01/05 02:46:08;;;;;;;24.48;3.70;;;7.10;93.80;;;;;;5106192;27;20408;-74
2022/01/05 02:48:34;;;;;;;30.00;3.90;;;7.20;94.20;;;;;;5114246;27;20453;-72
2022/01/05 02:51:00;;;;;;;29.00;4.53;;;7.20;94.30;;;;;;5090339;28;20437;-73
2022/01/05 02:53:25;;;;;;;29.98;4.25;;;7.20;94.60;;;;;;5108960;27;20502;-73
2022/01/05 02:55:52;;;;;;;22.80;3.88;;;7.20;94.70;;;;;;5107161;28;20404;-73
2022/01/05 02:58:19;;;;;;;27.07;4.10;;;7.10;94.90;;;;;;5108184;28;20419;-74
2022/01/05 03:00:45;;;;;;;23.40;4.03;;;7.10;95.20;;;;;;5092336;28;20454;-73
2022/01/05 03:03:11;;;;;;;23.95;4.45;;;7.10;95.60;;;;;;5123097;27;20541;-73
2022/01/05 03:05:37;;;;;;;23.88;4.30;;;7.10;95.90;;;;;;5125757;27;20442;-72
2022/01/05 03:08:04;;;;;;;23.58;4.13;;;7.20;96.00;;;;;;5112586;27;20483;-74
2022/01/05 03:10:29;;;;;;;23.10;4.53;;;7.20;96.00;;;;;;5118835;27;20928;-74
2022/01/05 03:12:55;;;;;;;25.33;4.47;;;7.20;96.00;;;;;;5106734;27;20399;-74
2022/01/05 03:15:21;;;;;;;24.97;4.00;;;7.20;96.30;;;;;;5107112;27;20488;-73
2022/01/05 03:17:46;;;;;;;22.58;3.92;;;7.20;96.40;;;;;;5105556;28;20868;-73
2022/01/05 03:20:13;;;;;;;26.17;4.03;;;7.30;96.40;;;;;;5111023;27;20499;-73
2022/01/05 03:22:40;;;;;;;25.10;3.85;;;7.30;96.40;;;;;;5113979;27;20431;-73
2022/01/05 03:25:08;;;;;;;23.60;3.40;;;7.30;96.10;;;;;;5107397;28;20403;-74
2022/01/05 03:27:33;;;;;;;21.73;3.70;;;7.30;95.40;;;;;;5107212;28;20411;-74
2022/01/05 03:30:00;;;;;;;21.80;3.97;;;7.30;95.00;;;;;;5107946;28;20388;-73
2022/01/05 03:32:31;;;;;;;21.77;3.60;;;7.30;95.40;;;;;;5107135;27;20502;-71
2022/01/05 03:34:57;;;;;;;26.83;3.63;;;7.30;95.50;;;;;;5107402;28;20416;-72
2022/01/05 03:37:22;;;;;;;20.00;3.65;;;7.30;95.60;;;;;;5106711;28;20426;-73
2022/01/05 03:39:48;;;;;;;24.30;3.90;;;7.30;96.20;;;;;;5107647;27;20435;-72
2022/01/05 03:42:14;;;;;;;29.40;3.87;;;7.30;96.90;;;;;;5091083;27;20416;-73
2022/01/05 03:44:39;;;;;;;21.75;3.40;;;7.20;97.00;;;;;;5109783;27;20402;-72
2022/01/05 03:47:05;;;;;;;22.67;3.67;;;7.20;97.20;;;;;;5120029;27;20426;-71
2022/01/05 03:49:31;;;;;;;27.23;4.20;;;7.20;97.40;;;;;;5106836;27;20399;-73
2022/01/05 03:51:56;;;;;;;26.55;4.35;;;7.10;97.70;;;;;;5109391;27;20412;-72
2022/01/05 03:54:22;;;;;;;28.80;4.33;;;7.10;98.00;;;;;;5110954;27;20523;-73
2022/01/05 03:56:47;;;;;;;27.20;4.30;;;7.10;98.20;;;;;;5108216;27;20426;-71
2022/01/05 03:59:13;;;;;;;21.70;3.83;;;7.20;98.30;;;;;;5112507;27;20443;-71
2022/01/05 04:01:38;;;;;;;22.73;4.00;;;7.20;98.20;;;;;;5109255;27;20407;-72
2022/01/05 04:04:04;;;;;;;20.45;3.60;;;7.20;98.20;;;;;;5109813;27;20412;-72
2022/01/05 04:06:30;;;;;;;21.27;3.97;;;7.10;97.90;;;;;;5107482;27;20411;-74
2022/01/05 04:08:55;;;;;;;22.25;3.60;;;7.20;97.70;;;;;;5121562;27;20413;-74
2022/01/05 04:11:21;;;;;;;24.43;4.20;;;7.20;97.60;;;;;;5110485;27;20499;-74
2022/01/05 04:13:47;;;;;;;28.57;4.37;;;7.20;97.50;;;;;;5115182;27;20437;-73
2022/01/05 04:16:12;;;;;;;23.60;3.67;;;7.20;97.40;;;;;;5106039;28;20402;-72
2022/01/05 04:18:40;;;;;;;22.20;3.73;;;7.30;97.60;;;;;;5108190;28;20404;-74
2022/01/05 04:21:06;;;;;;;25.73;3.80;;;7.20;97.80;;;;;;5109907;27;20899;-72
2022/01/05 04:23:32;;;;;;;22.95;3.67;;;7.30;98.10;;;;;;5108655;28;20402;-74
2022/01/05 04:25:57;;;;;;;28.00;4.07;;;7.20;98.30;;;;;;5104587;28;20419;-73
2022/01/05 04:28:23;;;;;;;22.35;4.00;;;7.20;98.40;;;;;;5107283;28;20413;-72
2022/01/05 04:30:48;;;;;;;22.17;4.33;;;7.20;98.50;;;;;;5087783;28;20443;-74
2022/01/05 04:33:14;;;;;;;22.50;3.60;;;7.20;98.80;;;;;;5127718;27;20408;-72
2022/01/05 04:35:40;;;;;;;22.77;3.83;;;7.10;98.80;;;;;;5104737;28;20414;-74
2022/01/05 04:38:05;;;;;;;28.42;3.80;;;7.10;98.90;;;;;;5106685;28;20419;-74
2022/01/05 04:40:31;;;;;;;25.07;4.40;;;7.10;99.10;;;;;;5107559;28;20487;-74
2022/01/05 04:42:58;;;;;;;27.30;4.00;;;7.10;99.30;;;;;;5108706;28;20409;-73
2022/01/05 04:45:23;;;;;;;22.45;4.03;;;7.10;99.30;;;;;;5107469;28;20872;-73
2022/01/05 04:47:49;;;;;;;24.25;4.28;;;7.10;99.60;;;;;;5105515;28;20419;-74
2022/01/05 04:50:15;;;;;;;24.20;4.40;;;7.00;99.80;;;;;;5107037;28;20420;-73
2022/01/05 04:52:41;;;;;;;27.85;4.18;;;7.00;99.90;;;;;;5110090;28;20412;-73
2022/01/05 04:55:08;;;;;;;27.77;4.70;;;7.00;99.90;;;;;;5113448;27;20470;-75
2022/01/05 04:57:34;;;;;;;23.42;4.25;;;7.00;99.90;;;;;;5108982;27;20426;-74
2022/01/05 05:00:00;;;;;;;22.88;3.70;;;7.00;99.90;;;;;;5093116;28;20868;-72
2022/01/05 05:02:26;;;;;;;22.27;4.45;;;7.00;99.90;;;;;;5110703;28;20515;-71
2022/01/05 05:04:51;;;;;;;25.10;4.00;;;7.10;99.90;;;;;;5112080;27;20418;-72
2022/01/05 05:07:18;;;;;;;20.23;3.83;;;7.10;99.90;;;;;;5115689;27;20400;-73
2022/01/05 05:09:43;;;;;;;25.92;4.10;;;7.20;99.90;;;;;;5112574;27;20763;-72
2022/01/05 05:12:09;;;;;;;25.77;4.50;;;7.20;99.90;;;;;;5110081;28;20419;-74
2022/01/05 05:14:36;;;;;;;24.95;3.75;;;7.20;99.90;;;;;;5110662;28;20423;-71
2022/01/05 05:17:02;;;;;;;26.67;4.43;;;7.20;99.90;;;;;;5110107;28;20919;-73
2022/01/05 05:19:28;;;;;;;29.47;4.20;;;7.20;99.90;;;;;;5117631;27;20420;-73
2022/01/05 05:21:54;;;;;;;28.95;4.85;;;7.20;99.90;;;;;;5112551;27;20498;-76
2022/01/05 05:24:20;;;;;;;30.47;5.07;;;7.20;99.90;;;;;;5116373;27;20489;-72
2022/01/05 05:26:45;;;;;;;25.05;4.60;;;7.30;99.90;;;;;;5094905;28;20404;-74
2022/01/05 05:29:11;;;;;;;23.60;4.53;;;7.30;99.90;;;;;;5118637;27;20412;-73
2022/01/05 05:31:37;;;;;;;28.23;4.17;;;7.30;99.90;;;;;;5098436;27;20964;-73
2022/01/05 05:34:02;;;;;;;31.30;4.47;;;7.40;99.90;;;;;;5111879;27;20448;-73
2022/01/05 05:36:28;;;;;;;30.93;4.50;;;7.40;99.90;;;;;;5117912;27;20443;-74
2022/01/05 05:38:53;;;;;;;23.92;4.07;;;7.40;99.90;;;;;;5109192;27;20426;-72
2022/01/05 05:41:19;;;;;;;29.53;4.57;;;7.50;99.90;;;;;;5109138;27;20424;-72
2022/01/05 05:43:45;;;;;;;32.67;4.88;;;7.40;99.90;;;;;;5112679;27;20919;-74
2022/01/05 05:46:10;;;;;;;33.77;5.10;;;7.40;99.90;;;;;;5103676;28;20416;-73
2022/01/05 05:48:36;;;;;;;34.55;4.90;;;7.40;99.90;;;;;;5102014;28;20806;-71
2022/01/05 05:51:02;;;;;;;27.40;4.78;;;7.40;99.90;;;;;;5109851;27;20413;-72
2022/01/05 05:53:28;;;;;;;28.30;5.25;;;7.30;99.90;;;;;;5113290;27;20553;-72
2022/01/05 05:55:53;;;;;;;37.07;5.30;;;7.30;99.90;;;;;;5109911;27;20881;-75
2022/01/05 05:58:19;;;;;;;33.20;4.65;;;7.20;99.90;;;;;;5110115;27;20467;-74
2022/01/05 06:00:45;;;;;;;29.10;4.70;;;7.20;99.90;;;;;;5116214;27;20396;-73
2022/01/05 06:03:10;;;;;;;31.42;4.35;;;7.20;99.90;;;;;;5109534;28;20408;-70
2022/01/05 06:05:36;;;;;;;31.63;4.70;;;7.20;99.90;;;;;;5112858;27;20923;-73
2022/01/05 06:08:02;;;;;;;30.80;4.73;;;7.20;99.90;;;;;;5115626;27;20394;-73
2022/01/05 06:10:27;;;;;;;32.65;5.03;;;7.20;99.90;;;;;;5115277;27;20434;-71
2022/01/05 06:12:53;;;;;;;29.63;4.77;;;7.10;99.90;;;;;;5110709;27;20408;-72
2022/01/05 06:15:19;;;;;;;29.60;4.90;;;7.10;99.90;;;;;;5113188;27;20400;-72
2022/01/05 06:17:44;;;;;;;27.23;4.60;;;7.10;99.90;;;;;;5109778;27;20439;-73
2022/01/05 06:20:11;;;;;;;30.75;5.07;;;7.10;99.90;;;;;;5115952;27;20902;-73
2022/01/05 06:22:41;;;;;;;33.45;4.78;;;7.10;99.90;;;;;;5111085;27;20900;-72
2022/01/05 06:25:08;;;;;;;37.28;4.93;;;7.20;99.90;;;;;;5116300;27;20414;-71
2022/01/05 06:27:34;;;;;;;31.30;4.70;;;7.20;99.90;;;;;;5122909;27;20414;-73
2022/01/05 06:30:04;;;;;;;34.00;4.60;;;7.20;99.90;;;;;;5115141;27;20406;-73
2022/01/05 06:32:30;;;;;;;31.45;4.80;;;7.30;99.90;;;;;;5117203;27;20412;-72
2022/01/05 06:34:56;;;;;;;36.08;4.95;;;7.30;99.90;;;;;;5117240;27;20417;-72
2022/01/05 06:37:21;;;;;;;33.75;4.85;;;7.30;99.90;;;;;;5110402;27;20423;-73
2022/01/05 06:39:47;;;;;;;35.40;4.83;;;7.30;99.90;;;;;;5115668;27;21020;-74
2022/01/05 06:42:13;;;;;;;40.85;5.85;;;7.40;99.90;;;;;;5118476;27;20546;-73
2022/01/05 06:44:38;;;;;;;27.03;4.83;;;7.40;99.90;;;;;;5115290;27;20404;-74
2022/01/05 06:47:04;;;;;;;34.83;5.25;;;7.40;99.90;;;;;;5115720;27;20919;-75
2022/01/05 06:49:30;;;;;;;37.77;5.37;;;7.40;99.90;;;;;;5118934;27;20465;-74
2022/01/05 06:51:55;;;;;;;30.50;5.05;;;7.40;99.90;;;;;;5114302;27;20801;-76
2022/01/05 06:54:21;;;;;;;35.97;4.97;;;7.50;99.90;;;;;;5117068;27;20217;-74
2022/01/05 06:56:47;;;;;;;30.85;4.70;;;7.10;99.90;;;;;;5116997;27;20223;-73
2022/01/05 06:59:14;;;;;;;38.47;5.60;;;6.80;99.90;;;;;;5112885;27;20511;-73
2022/01/05 07:01:40;;;;;;;39.22;4.97;;;7.00;99.90;;;;;;5114542;27;20204;-74
2022/01/05 07:04:05;;;;;;;39.38;5.45;;;6.80;99.90;;;;;;5119827;27;20194;-73
2022/01/05 07:06:31;;;;;;;30.42;5.03;;;6.60;99.90;;;;;;5114916;27;20185;-74
2022/01/05 07:08:57;;;;;;;32.72;4.90;;;6.50;99.90;;;;;;5116558;27;20273;-74
2022/01/05 07:11:22;;;;;;;44.40;4.57;;;6.40;99.90;;;;;;5114977;27;20637;-72
2022/01/05 07:13:48;;;;;;;45.42;4.95;;;6.30;99.90;;;;;;5101555;27;20196;-74
2022/01/05 07:16:13;;;;;;;43.42;4.78;;;6.20;99.90;;;;;;5112114;27;20181;-73
2022/01/05 07:18:39;;;;;;;40.10;4.13;;;6.20;99.90;;;;;;5115634;27;20192;-74
2022/01/05 07:21:05;;;;;;;25.50;3.17;;;6.20;99.90;;;;;;5143974;27;20189;-75
2022/01/05 07:23:30;;;;;;;27.85;3.90;;;6.20;99.90;;;;;;5114907;27;20186;-77
2022/01/05 07:25:56;;;;;;;31.92;3.50;;;6.10;99.90;;;;;;5099550;28;20190;-74
2022/01/05 07:28:21;;;;;;;21.65;3.35;;;6.10;99.90;;;;;;5110181;27;20193;-74
2022/01/05 07:30:47;;;;;;;28.85;3.33;;;6.10;99.90;;;;;;5113541;27;20208;-75
2022/01/05 07:33:12;;;;;;;26.00;3.28;;;6.10;99.90;;;;;;5119634;27;20196;-74
2022/01/05 07:35:38;;;;;;;32.65;4.20;;;6.10;99.90;;;;;;5116826;27;20548;-76
2022/01/05 07:38:04;;;;;;;30.38;3.78;;;6.10;99.90;;;;;;5109854;28;20177;-74
2022/01/05 07:40:29;;;;;;;32.55;4.22;;;6.10;99.90;;;;;;5095265;28;20196;-73
2022/01/05 07:42:55;;;;;;;29.17;4.00;;;6.10;99.90;;;;;;5115493;27;20189;-74
2022/01/05 07:45:21;;;;;;;29.67;4.20;;;6.10;99.90;;;;;;5095862;28;20181;-72
2022/01/05 07:47:46;;;;;;;31.92;3.85;;;6.10;99.90;;;;;;5091044;28;20536;-72
2022/01/05 07:50:14;;;;;;;33.40;4.30;;;6.10;99.90;;;;;;5107426;28;21843;-73
2022/01/05 07:52:42;;;;;;;31.23;3.78;;;6.20;99.90;;;;;;5101879;27;20664;-73
2022/01/05 07:55:08;;;;;;;35.35;4.20;;;6.20;99.90;;;;;;5119920;27;20192;-73
2022/01/05 07:57:34;;;;;;;38.85;4.10;;;6.20;99.90;;;;;;5105067;28;20230;-73
2022/01/05 08:00:00;;;;;;;38.20;5.18;;;6.30;99.90;;;;;;5106378;28;20209;-73
2022/01/05 08:02:26;;;;;;;30.50;4.80;;;6.30;99.90;;;;;;5105035;28;20622;-73
2022/01/05 08:04:52;;;;;;;34.92;4.93;;;6.30;99.90;;;;;;5092580;27;20174;-75
2022/01/05 08:07:17;;;;;;;33.60;4.95;;;6.40;99.90;;;;;;5113408;27;20640;-75
2022/01/05 08:09:43;;;;;;;26.55;4.15;;;6.40;99.90;;;;;;5118655;27;20177;-73
2022/01/05 08:12:09;;;;;;;40.95;4.13;;;6.40;99.90;;;;;;5109785;27;20196;-74
2022/01/05 08:14:35;;;;;;;36.92;4.88;;;6.50;99.90;;;;;;5107391;28;20181;-73
2022/01/05 08:17:00;;;;;;;31.85;5.07;;;6.50;99.90;;;;;;5116652;27;20192;-73
2022/01/05 08:19:26;;;;;;;41.53;5.53;;;6.50;99.90;;;;;;5110078;27;20748;-73
2022/01/05 08:21:52;;;;;;;33.90;4.75;;;6.60;99.90;;;;;;5109668;27;20267;-74
2022/01/05 08:24:17;;;;;;;41.20;5.00;;;6.60;99.90;;;;;;5110155;27;20185;-74
2022/01/05 08:26:43;;;;;;;31.10;4.25;;;6.60;99.90;;;;;;5109095;27;20199;-75
2022/01/05 08:29:08;;;;;;;36.97;4.85;;;6.60;99.90;;;;;;5107140;28;20238;-73
2022/01/05 08:31:34;;;;;;;33.35;4.90;;;6.60;99.90;;;;;;5105740;28;20245;-74
2022/01/05 08:34:00;;;;;;;49.10;5.13;;;6.60;99.90;;;;;;5116422;27;20181;-73
2022/01/05 08:36:26;;;;;;;44.55;5.07;;;6.60;99.90;;;;;;5114781;27;20188;-74
2022/01/05 08:38:52;;;;;;;36.30;5.20;;;6.60;99.90;;;;;;5094028;28;20677;-75
2022/01/05 08:41:18;;;;;;;40.28;4.63;;;6.60;99.90;;;;;;5107277;28;20228;-73
2022/01/05 08:43:43;;;;;;;43.88;4.53;;;6.60;99.90;;;;;;5118093;27;20640;-74
2022/01/05 08:46:09;;;;;;;41.47;4.47;;;6.50;99.90;;;;;;5093905;28;20185;-74
2022/01/05 08:48:36;;;;;;;47.83;4.95;;;6.50;99.90;;;;;;5113951;28;20182;-73
2022/01/05 08:51:02;;;;;;;48.78;5.00;;;6.50;99.90;;;;;;5112486;27;20198;-74
2022/01/05 08:53:27;;;;;;;32.38;4.68;;;6.50;99.90;;;;;;5106389;28;20189;-75
2022/01/05 08:55:53;;;;;;;56.65;6.25;;;6.50;99.90;;;;;;5105857;28;20211;-75
2022/01/05 08:58:20;;;;;;;46.38;5.00;;;6.60;99.90;;;;;;5113729;28;20237;-74
2022/01/05 09:00:48;;;;;;;43.95;5.20;;;6.60;99.90;;;;;;5112848;28;20621;-75
2022/01/05 09:03:15;;;;;;;43.90;5.82;;;6.60;99.90;;;;;;5109514;28;20185;-74
2022/01/05 09:05:42;;;;;;;50.65;5.32;;;6.70;99.90;;;;;;5112327;28;20185;-75
2022/01/05 09:08:07;;;;;;;46.78;5.20;;;6.70;99.90;;;;;;5114350;28;20509;-74
2022/01/05 09:10:33;;;;;;;47.15;5.93;;;6.80;99.90;;;;;;5116226;28;20191;-74
2022/01/05 09:12:59;;;;;;;44.35;5.90;;;6.80;99.90;;;;;;5106512;28;20197;-75
2022/01/05 09:15:26;;;;;;;46.50;5.25;;;6.80;99.90;;;;;;5118342;28;20196;-74
2022/01/05 09:17:52;;;;;;;44.75;6.35;;;6.90;99.90;;;;;;5113507;28;20416;-76
2022/01/05 09:20:18;;;;;;;42.38;5.30;;;7.30;99.90;;;;;;5113124;28;20410;-74
2022/01/05 09:22:44;;;;;;;39.80;5.97;;;7.60;99.90;;;;;;5113274;27;20405;-73
2022/01/05 09:25:12;;;;;;;35.63;5.60;;;7.80;99.90;;;;;;5114754;28;20422;-73
2022/01/05 09:27:38;;;;;;;32.95;4.78;;;7.90;99.90;;;;;;5112374;28;20908;-72
2022/01/05 09:30:06;;;;;;;37.53;5.82;;;8.00;99.90;;;;;;5112585;28;20438;-76
2022/01/05 09:32:32;;;;;;;36.78;5.25;;;8.00;99.90;;;;;;5113247;28;20405;-74
2022/01/05 09:34:58;;;;;;;40.92;6.00;;;8.10;99.90;;;;;;5113015;28;20416;-74
2022/01/05 09:37:28;;;;;;;42.95;6.35;;;8.20;99.90;;;;;;5091009;28;20495;-74
2022/01/05 09:42:40;;;;;;;36.75;4.85;;;7.80;99.90;;;;;;5114975;27;20229;-73
2022/01/05 09:45:11;;;;;;;30.13;4.53;;;7.60;99.90;;;;;;5112065;28;20276;-74
2022/01/05 09:48:08;;;;;;;38.50;4.57;;;7.50;99.90;;;;;;5112557;27;20182;-75
2022/01/05 09:50:36;;;;;;;33.38;4.90;;;7.40;99.90;;;;;;5109501;28;20715;-74
2022/01/05 09:53:04;;;;;;;34.43;5.53;;;7.30;99.90;;;;;;5108177;27;20888;-75
2022/01/05 09:55:30;;;;;;;37.93;5.90;;;7.70;99.90;;;;;;5108755;27;20411;-74
2022/01/05 09:57:56;;;;;;;37.75;5.47;;;8.00;99.90;;;;;;5104005;27;20736;-75
2022/01/05 10:00:22;;;;;;;39.70;5.40;;;8.20;99.90;;;;;;5117717;27;20419;-73
2022/01/05 10:02:49;;;;;;;38.10;5.13;;;8.40;99.90;;;;;;5092975;28;21004;-76
2022/01/05 10:05:16;;;;;;;34.42;4.75;;;8.10;99.90;;;;;;5114350;27;20242;-73
2022/01/05 10:07:42;;;;;;;35.83;4.40;;;7.90;99.90;;;;;;5107225;28;20178;-73
2022/01/05 10:10:09;;;;;;;35.28;5.30;;;7.70;99.90;;;;;;5110510;27;20204;-72
2022/01/05 10:12:35;;;;;;;37.33;5.00;;;7.60;99.90;;;;;;5104393;27;20190;-72
2022/01/05 10:15:01;;;;;;;32.33;4.22;;;7.50;99.90;;;;;;5111082;27;20558;-75
2022/01/05 10:17:28;;;;;;;40.97;5.60;;;7.40;99.90;;;;;;5108867;27;20189;-73
2022/01/05 10:20:09;;;;;;;43.75;5.43;;;7.40;99.90;;;;;;5111965;27;20209;-73
2022/01/05 10:22:44;;;;;;;36.83;4.75;;;7.40;99.90;;;;;;5106144;27;20180;-73
2022/01/05 10:25:21;;;;;;;33.90;5.43;;;7.30;99.90;;;;;;5107710;27;20181;-77
2022/01/05 10:28:00;;;;;;;33.85;5.20;;;7.30;99.90;;;;;;5108402;27;20188;-74
2022/01/05 10:30:38;;;;;;;50.13;5.28;;;7.30;99.90;;;;;;5092703;28;20192;-75
2022/01/05 10:33:04;;;;;;;49.28;5.93;;;7.40;99.90;;;;;;5109198;28;20646;-76
2022/01/05 10:35:30;;;;;;;39.35;4.80;;;7.40;99.90;;;;;;5108721;27;20974;-75
2022/01/05 10:37:57;;;;;;;40.90;4.95;;;7.40;99.90;;;;;;5107892;28;20197;-75
2022/01/05 10:40:23;;;;;;;36.40;4.43;;;7.40;99.90;;;;;;5108707;27;20243;-74
2022/01/05 10:42:53;;;;;;;31.75;4.30;;;7.40;99.90;;;;;;5106545;28;20200;-73
2022/01/05 10:45:38;;;;;;;39.92;4.78;;;7.40;99.90;;;;;;5112924;27;20267;-73
2022/01/05 10:48:15;;;;;;;44.15;4.47;;;7.40;99.90;;;;;;5114122;27;20188;-75
2022/01/05 10:50:42;;;;;;;26.75;4.10;;;7.30;99.90;;;;;;5111527;27;20265;-74
2022/01/05 10:53:13;;;;;;;34.13;4.97;;;7.30;99.90;;;;;;5109030;28;20217;-73
2022/01/05 10:55:44;;;;;;;45.33;5.35;;;7.30;99.90;;;;;;5111568;27;20196;-75
2022/01/05 10:58:15;;;;;;;45.83;5.20;;;7.30;99.90;;;;;;5108238;28;20665;-75
2022/01/05 11:00:47;;;;;;;32.88;3.60;;;7.30;99.90;;;;;;5112812;27;20180;-74
2022/01/05 11:03:28;;;;;;;31.27;4.80;;;7.40;99.90;;;;;;5110696;27;20186;-73
2022/01/05 11:06:08;;;;;;;40.42;5.15;;;7.40;99.90;;;;;;5106331;27;20192;-74
2022/01/05 11:08:51;;;;;;;53.47;5.53;;;7.40;99.90;;;;;;5112655;27;20193;-75
2022/01/05 11:11:39;;;;;;;43.30;6.60;;;7.40;99.90;;;;;;5107697;27;20189;-75
2022/01/05 11:14:07;;;;;;;46.85;7.72;;;7.40;99.90;;;;;;5113479;27;20181;-75
2022/01/05 11:16:33;;;;;;;42.70;5.47;;;7.50;99.90;;;;;;5120573;27;20216;-72
2022/01/05 11:19:19;;;;;;;42.65;5.20;;;7.50;99.90;;;;;;5113767;27;20197;-74
2022/01/05 11:22:14;;;;;;;35.88;5.07;;;7.50;99.90;;;;;;5112674;27;20585;-74
2022/01/05 11:24:54;;;;;;;40.65;5.55;;;7.60;99.90;;;;;;5108872;27;20178;-74
2022/01/05 11:27:24;;;;;;;37.85;5.05;;;7.60;99.90;;;;;;5113863;27;20220;-74
2022/01/05 11:29:50;;;;;;;44.45;5.22;;;7.70;99.90;;;;;;5113438;27;20648;-74
2022/01/05 11:32:20;;;;;;;44.70;6.63;;;7.80;99.90;;;;;;5105749;27;20432;-74
2022/01/05 11:34:47;;;;;;;32.58;5.07;;;8.20;99.90;;;;;;5124074;27;20641;-76
2022/01/05 11:37:13;;;;;;;31.00;5.00;;;8.20;99.90;;;;;;5109428;27;20783;-74
2022/01/05 11:39:51;;;;;;;29.02;3.92;;;8.10;99.90;;;;;;5109452;27;20295;-74
2022/01/05 11:42:27;;;;;;;31.10;4.13;;;8.00;99.90;;;;;;5109935;27;20223;-74
2022/01/05 11:44:57;;;;;;;35.90;4.88;;;7.90;99.90;;;;;;5104976;28;20181;-74
2022/01/05 11:47:35;;;;;;;29.77;4.18;;;7.80;99.90;;;;;;5110702;27;20232;-73
2022/01/05 11:50:13;;;;;;;41.00;4.25;;;7.80;99.90;;;;;;5114014;27;20219;-74
2022/01/05 11:53:00;;;;;;;32.55;5.32;;;7.80;99.90;;;;;;5106462;27;20194;-74
2022/01/05 11:55:32;;;;;;;35.50;4.75;;;7.90;99.90;;;;;;5112052;27;20223;-74
2022/01/05 11:58:21;;;;;;;43.28;4.60;;;8.30;99.90;;;;;;5111280;27;20552;-73
2022/01/05 12:01:07;;;;;;;39.10;4.93;;;8.60;99.90;;;;;;5090573;28;20189;-75
2022/01/05 12:03:57;;;;;;;31.52;4.18;;;8.80;99.90;;;;;;5107055;28;20185;-74
2022/01/05 12:06:26;;;;;;;41.20;4.82;;;8.90;99.90;;;;;;5110078;27;20775;-74
2022/01/05 12:08:54;;;;;;;31.08;4.50;;;8.90;99.90;;;;;;5108143;28;20189;-74
2022/01/05 12:11:39;;;;;;;22.58;3.55;;;8.90;99.90;;;;;;5113733;27;20253;-74
2022/01/05 12:14:06;;;;;;;26.95;3.50;;;8.80;99.90;;;;;;5108789;27;20206;-74
2022/01/05 12:17:03;;;;;;;30.17;4.75;;;8.70;99.90;;;;;;5111585;27;20181;-74
2022/01/05 12:19:34;;;;;;;43.13;4.43;;;8.80;99.90;;;;;;5105145;28;20270;-75
2022/01/05 12:22:13;;;;;;;31.33;4.75;;;9.10;99.90;;;;;;5108801;27;20186;-74
2022/01/05 12:25:07;;;;;;;29.92;4.15;;;9.50;99.90;;;;;;5107278;28;20177;-75
2022/01/05 12:27:53;;;;;;;26.02;3.67;;;9.80;99.90;;;;;;5105802;28;20618;-73
2022/01/05 12:30:19;;;;;;;28.15;4.53;;;10.10;99.90;;;;;;5126796;27;20553;-75
2022/01/05 12:32:46;;;;;;;37.00;4.72;;;10.20;99.90;;;;;;5107866;28;20195;-75
2022/01/05 12:35:19;;;;;;;24.70;4.20;;;10.30;99.90;;;;;;5111943;28;20249;-73
2022/01/05 12:37:49;;;;;;;32.47;4.90;;;10.50;99.90;;;;;;5111063;28;20416;-73
2022/01/05 12:40:34;;;;;;;30.33;5.32;;;11.30;99.90;;;;;;5109694;28;20428;-72
2022/01/05 12:43:08;;;;;;;32.00;4.78;;;11.70;99.90;;;;;;5115470;27;20410;-73
2022/01/05 12:45:53;;;;;;;31.45;5.00;;;11.80;99.70;;;;;;5112174;28;21239;-73
2022/01/05 12:48:33;;;;;;;32.17;4.78;;;11.90;98.60;;;;;;5112377;28;20403;-74
2022/01/05 12:51:11;;;;;;;26.73;4.37;;;11.90;98.00;;;;;;5086924;28;20418;-72